sensor_id;sensor_type;location;lat;lon;timestamp;P1;durP1;ratioP1;P2;durP2;ratioP2
4786;SDS011;62338;48.832;9.422;2023-05-16T00:00:26;17.47;;;8.60;;
4786;SDS011;62338;48.832;9.422;2023-05-16T00:02:28;15.77;;;8.97;;
4786;SDS011;62338;48.832;9.422;2023-05-16T00:04:31;17.17;;;9.33;;
4786;SDS011;62338;48.832;9.422;2023-05-16T00:06:33;15.10;;;10.07;;
4786;SDS011;62338;48.832;9.422;2023-05-16T00:08:36;15.70;;;8.97;;
4786;SDS011;62338;48.832;9.422;2023-05-16T00:10:38;15.17;;;9.40;;
4786;SDS011;62338;48.832;9.422;2023-05-16T00:12:40;17.47;;;10.13;;
4786;SDS011;62338;48.832;9.422;2023-05-16T00:14:41;15.73;;;9.87;;
4786;SDS011;62338;48.832;9.422;2023-05-16T00:16:43;16.20;;;10.20;;
4786;SDS011;62338;48.832;9.422;2023-05-16T00:18:46;19.43;;;11.00;;
4786;SDS011;62338;48.832;9.422;2023-05-16T00:20:48;19.80;;;10.67;;
4786;SDS011;62338;48.832;9.422;2023-05-16T00:22:52;17.03;;;11.00;;
4786;SDS011;62338;48.832;9.422;2023-05-16T00:24:55;16.13;;;10.17;;
4786;SDS011;62338;48.832;9.422;2023-05-16T00:26:56;18.20;;;11.43;;
4786;SDS011;62338;48.832;9.422;2023-05-16T00:28:58;17.87;;;11.00;;
4786;SDS011;62338;48.832;9.422;2023-05-16T00:31:00;21.33;;;12.10;;
4786;SDS011;62338;48.832;9.422;2023-05-16T00:33:02;16.47;;;11.37;;
4786;SDS011;62338;48.832;9.422;2023-05-16T00:35:04;19.57;;;10.97;;
4786;SDS011;62338;48.832;9.422;2023-05-16T00:37:07;21.77;;;12.50;;
4786;SDS011;62338;48.832;9.422;2023-05-16T00:39:09;15.80;;;9.90;;
4786;SDS011;62338;48.832;9.422;2023-05-16T00:41:11;20.70;;;11.60;;
4786;SDS011;62338;48.832;9.422;2023-05-16T00:43:14;17.30;;;11.77;;
4786;SDS011;62338;48.832;9.422;2023-05-16T00:45:15;17.47;;;10.93;;
4786;SDS011;62338;48.832;9.422;2023-05-16T00:47:18;17.73;;;10.07;;
4786;SDS011;62338;48.832;9.422;2023-05-16T00:49:20;18.50;;;10.20;;
4786;SDS011;62338;48.832;9.422;2023-05-16T00:51:22;19.17;;;11.23;;
4786;SDS011;62338;48.832;9.422;2023-05-16T00:53:24;22.53;;;11.97;;
4786;SDS011;62338;48.832;9.422;2023-05-16T00:55:27;20.63;;;13.37;;
4786;SDS011;62338;48.832;9.422;2023-05-16T00:57:29;18.00;;;11.93;;
4786;SDS011;62338;48.832;9.422;2023-05-16T00:59:31;19.07;;;11.30;;
4786;SDS011;62338;48.832;9.422;2023-05-16T01:01:33;23.00;;;12.60;;
4786;SDS011;62338;48.832;9.422;2023-05-16T01:03:37;21.30;;;12.90;;
4786;SDS011;62338;48.832;9.422;2023-05-16T01:05:39;21.50;;;14.30;;
4786;SDS011;62338;48.832;9.422;2023-05-16T01:07:41;26.57;;;14.43;;
4786;SDS011;62338;48.832;9.422;2023-05-16T01:09:43;25.43;;;14.07;;
4786;SDS011;62338;48.832;9.422;2023-05-16T01:11:55;25.70;;;14.07;;
4786;SDS011;62338;48.832;9.422;2023-05-16T01:14:11;22.77;;;13.23;;
4786;SDS011;62338;48.832;9.422;2023-05-16T01:21:00;25.63;;;14.67;;
4786;SDS011;62338;48.832;9.422;2023-05-16T01:28:14;27.47;;;15.50;;
4786;SDS011;62338;48.832;9.422;2023-05-16T01:30:18;29.37;;;16.90;;
4786;SDS011;62338;48.832;9.422;2023-05-16T01:32:20;28.77;;;14.57;;
4786;SDS011;62338;48.832;9.422;2023-05-16T01:34:23;25.87;;;15.80;;
4786;SDS011;62338;48.832;9.422;2023-05-16T01:36:27;28.80;;;15.33;;
4786;SDS011;62338;48.832;9.422;2023-05-16T01:39:25;30.47;;;16.63;;
4786;SDS011;62338;48.832;9.422;2023-05-16T01:44:15;26.70;;;14.40;;
4786;SDS011;62338;48.832;9.422;2023-05-16T01:46:25;29.47;;;15.90;;
4786;SDS011;62338;48.832;9.422;2023-05-16T01:48:32;24.33;;;15.10;;
4786;SDS011;62338;48.832;9.422;2023-05-16T01:50:41;29.50;;;15.77;;
4786;SDS011;62338;48.832;9.422;2023-05-16T01:52:49;36.40;;;17.57;;
4786;SDS011;62338;48.832;9.422;2023-05-16T01:54:52;33.30;;;18.53;;
4786;SDS011;62338;48.832;9.422;2023-05-16T01:56:57;34.47;;;18.13;;
4786;SDS011;62338;48.832;9.422;2023-05-16T01:59:01;31.63;;;17.30;;
4786;SDS011;62338;48.832;9.422;2023-05-16T02:01:04;38.90;;;17.90;;
4786;SDS011;62338;48.832;9.422;2023-05-16T02:03:07;35.77;;;19.10;;
4786;SDS011;62338;48.832;9.422;2023-05-16T02:05:09;44.83;;;20.73;;
4786;SDS011;62338;48.832;9.422;2023-05-16T02:07:11;47.47;;;20.00;;
4786;SDS011;62338;48.832;9.422;2023-05-16T02:09:15;45.93;;;20.63;;
4786;SDS011;62338;48.832;9.422;2023-05-16T02:11:17;48.47;;;21.30;;
4786;SDS011;62338;48.832;9.422;2023-05-16T02:13:19;43.23;;;20.70;;
4786;SDS011;62338;48.832;9.422;2023-05-16T02:15:20;40.83;;;20.40;;
4786;SDS011;62338;48.832;9.422;2023-05-16T02:17:22;38.77;;;19.60;;
4786;SDS011;62338;48.832;9.422;2023-05-16T02:19:24;44.30;;;20.57;;
4786;SDS011;62338;48.832;9.422;2023-05-16T02:21:26;44.70;;;21.20;;
4786;SDS011;62338;48.832;9.422;2023-05-16T02:23:27;43.43;;;22.20;;
4786;SDS011;62338;48.832;9.422;2023-05-16T02:25:29;42.30;;;20.50;;
4786;SDS011;62338;48.832;9.422;2023-05-16T02:27:31;41.97;;;19.80;;
4786;SDS011;62338;48.832;9.422;2023-05-16T02:29:33;39.93;;;18.37;;
4786;SDS011;62338;48.832;9.422;2023-05-16T02:31:34;52.20;;;20.30;;
4786;SDS011;62338;48.832;9.422;2023-05-16T02:33:36;42.57;;;21.57;;
4786;SDS011;62338;48.832;9.422;2023-05-16T02:35:38;44.90;;;21.93;;
4786;SDS011;62338;48.832;9.422;2023-05-16T02:37:40;48.23;;;22.90;;
4786;SDS011;62338;48.832;9.422;2023-05-16T02:39:42;41.30;;;20.17;;
4786;SDS011;62338;48.832;9.422;2023-05-16T02:41:44;44.60;;;21.03;;
4786;SDS011;62338;48.832;9.422;2023-05-16T02:43:45;43.67;;;21.27;;
4786;SDS011;62338;48.832;9.422;2023-05-16T02:45:48;42.47;;;21.17;;
4786;SDS011;62338;48.832;9.422;2023-05-16T02:47:49;51.53;;;23.03;;
4786;SDS011;62338;48.832;9.422;2023-05-16T02:49:51;44.10;;;22.40;;
4786;SDS011;62338;48.832;9.422;2023-05-16T02:51:53;46.13;;;20.73;;
4786;SDS011;62338;48.832;9.422;2023-05-16T02:53:54;62.40;;;22.87;;
4786;SDS011;62338;48.832;9.422;2023-05-16T02:56:03;46.47;;;22.03;;
4786;SDS011;62338;48.832;9.422;2023-05-16T02:58:07;48.13;;;23.00;;
4786;SDS011;62338;48.832;9.422;2023-05-16T03:00:08;48.33;;;22.47;;
4786;SDS011;62338;48.832;9.422;2023-05-16T03:02:12;54.70;;;24.80;;
4786;SDS011;62338;48.832;9.422;2023-05-16T03:04:13;47.17;;;23.33;;
4786;SDS011;62338;48.832;9.422;2023-05-16T03:06:15;43.47;;;21.47;;
4786;SDS011;62338;48.832;9.422;2023-05-16T03:08:17;55.83;;;22.87;;
4786;SDS011;62338;48.832;9.422;2023-05-16T03:10:19;51.93;;;24.10;;
4786;SDS011;62338;48.832;9.422;2023-05-16T03:12:20;51.33;;;25.37;;
4786;SDS011;62338;48.832;9.422;2023-05-16T03:14:22;56.27;;;23.37;;
4786;SDS011;62338;48.832;9.422;2023-05-16T03:16:24;56.20;;;24.07;;
4786;SDS011;62338;48.832;9.422;2023-05-16T03:18:26;44.13;;;20.43;;
4786;SDS011;62338;48.832;9.422;2023-05-16T03:20:28;43.70;;;24.13;;
4786;SDS011;62338;48.832;9.422;2023-05-16T03:22:30;48.87;;;24.87;;
4786;SDS011;62338;48.832;9.422;2023-05-16T03:24:31;54.80;;;25.57;;
4786;SDS011;62338;48.832;9.422;2023-05-16T03:26:33;54.97;;;26.03;;
4786;SDS011;62338;48.832;9.422;2023-05-16T03:28:35;59.87;;;25.43;;
4786;SDS011;62338;48.832;9.422;2023-05-16T03:30:37;48.37;;;23.27;;
4786;SDS011;62338;48.832;9.422;2023-05-16T03:32:39;50.40;;;24.47;;
4786;SDS011;62338;48.832;9.422;2023-05-16T03:34:40;52.07;;;23.63;;
4786;SDS011;62338;48.832;9.422;2023-05-16T03:36:42;47.67;;;22.13;;
4786;SDS011;62338;48.832;9.422;2023-05-16T03:38:44;48.97;;;22.43;;
4786;SDS011;62338;48.832;9.422;2023-05-16T03:40:46;42.23;;;22.20;;
4786;SDS011;62338;48.832;9.422;2023-05-16T03:42:47;45.00;;;22.60;;
4786;SDS011;62338;48.832;9.422;2023-05-16T03:44:49;43.40;;;22.03;;
4786;SDS011;62338;48.832;9.422;2023-05-16T03:46:51;43.77;;;23.27;;
4786;SDS011;62338;48.832;9.422;2023-05-16T03:48:54;50.23;;;22.43;;
4786;SDS011;62338;48.832;9.422;2023-05-16T03:50:56;88.07;;;27.20;;
4786;SDS011;62338;48.832;9.422;2023-05-16T03:52:58;50.40;;;22.37;;
4786;SDS011;62338;48.832;9.422;2023-05-16T03:54:59;50.80;;;22.37;;
4786;SDS011;62338;48.832;9.422;2023-05-16T03:57:03;55.73;;;23.60;;
4786;SDS011;62338;48.832;9.422;2023-05-16T03:59:05;47.27;;;22.77;;
4786;SDS011;62338;48.832;9.422;2023-05-16T04:01:07;58.13;;;25.17;;
4786;SDS011;62338;48.832;9.422;2023-05-16T04:03:08;52.77;;;23.40;;
4786;SDS011;62338;48.832;9.422;2023-05-16T04:05:11;55.70;;;26.03;;
4786;SDS011;62338;48.832;9.422;2023-05-16T04:07:14;49.27;;;22.80;;
4786;SDS011;62338;48.832;9.422;2023-05-16T04:09:16;44.40;;;23.17;;
4786;SDS011;62338;48.832;9.422;2023-05-16T04:11:18;48.83;;;23.33;;
4786;SDS011;62338;48.832;9.422;2023-05-16T04:13:21;48.00;;;24.30;;
4786;SDS011;62338;48.832;9.422;2023-05-16T04:15:23;48.73;;;23.30;;
4786;SDS011;62338;48.832;9.422;2023-05-16T04:17:25;57.87;;;24.37;;
4786;SDS011;62338;48.832;9.422;2023-05-16T04:19:27;49.67;;;23.47;;
4786;SDS011;62338;48.832;9.422;2023-05-16T04:21:29;64.93;;;24.77;;
4786;SDS011;62338;48.832;9.422;2023-05-16T04:23:31;50.10;;;22.97;;
4786;SDS011;62338;48.832;9.422;2023-05-16T04:25:32;47.63;;;23.40;;
4786;SDS011;62338;48.832;9.422;2023-05-16T04:27:34;46.03;;;22.40;;
4786;SDS011;62338;48.832;9.422;2023-05-16T04:29:36;48.03;;;23.80;;
4786;SDS011;62338;48.832;9.422;2023-05-16T04:31:37;49.73;;;23.27;;
4786;SDS011;62338;48.832;9.422;2023-05-16T04:33:39;50.53;;;23.17;;
4786;SDS011;62338;48.832;9.422;2023-05-16T04:35:41;54.03;;;25.50;;
4786;SDS011;62338;48.832;9.422;2023-05-16T04:37:43;47.30;;;22.00;;
4786;SDS011;62338;48.832;9.422;2023-05-16T04:39:45;47.00;;;21.60;;
4786;SDS011;62338;48.832;9.422;2023-05-16T04:41:47;44.37;;;22.70;;
4786;SDS011;62338;48.832;9.422;2023-05-16T04:43:49;47.57;;;24.40;;
4786;SDS011;62338;48.832;9.422;2023-05-16T04:45:52;48.63;;;22.90;;
4786;SDS011;62338;48.832;9.422;2023-05-16T04:48:00;48.10;;;21.67;;
4786;SDS011;62338;48.832;9.422;2023-05-16T04:50:02;49.17;;;22.50;;
4786;SDS011;62338;48.832;9.422;2023-05-16T04:52:05;48.40;;;21.37;;
4786;SDS011;62338;48.832;9.422;2023-05-16T04:54:08;40.03;;;21.33;;
4786;SDS011;62338;48.832;9.422;2023-05-16T04:56:10;48.27;;;20.30;;
4786;SDS011;62338;48.832;9.422;2023-05-16T04:58:12;39.97;;;21.47;;
4786;SDS011;62338;48.832;9.422;2023-05-16T05:00:14;41.20;;;21.83;;
4786;SDS011;62338;48.832;9.422;2023-05-16T05:02:17;43.87;;;20.37;;
4786;SDS011;62338;48.832;9.422;2023-05-16T05:04:19;39.33;;;22.33;;
4786;SDS011;62338;48.832;9.422;2023-05-16T05:06:21;36.10;;;19.67;;
4786;SDS011;62338;48.832;9.422;2023-05-16T05:08:22;35.30;;;19.57;;
4786;SDS011;62338;48.832;9.422;2023-05-16T05:10:24;41.40;;;19.87;;
4786;SDS011;62338;48.832;9.422;2023-05-16T05:12:27;36.30;;;18.40;;
4786;SDS011;62338;48.832;9.422;2023-05-16T05:14:29;39.00;;;19.80;;
4786;SDS011;62338;48.832;9.422;2023-05-16T05:16:34;40.93;;;20.10;;
4786;SDS011;62338;48.832;9.422;2023-05-16T05:18:37;38.23;;;19.37;;
4786;SDS011;62338;48.832;9.422;2023-05-16T05:20:39;39.50;;;20.90;;
4786;SDS011;62338;48.832;9.422;2023-05-16T05:22:41;41.57;;;21.07;;
4786;SDS011;62338;48.832;9.422;2023-05-16T05:24:42;37.07;;;19.23;;
4786;SDS011;62338;48.832;9.422;2023-05-16T05:26:44;37.50;;;19.53;;
4786;SDS011;62338;48.832;9.422;2023-05-16T05:28:46;39.60;;;19.67;;
4786;SDS011;62338;48.832;9.422;2023-05-16T05:31:04;31.93;;;18.40;;
4786;SDS011;62338;48.832;9.422;2023-05-16T05:33:06;37.10;;;18.60;;
4786;SDS011;62338;48.832;9.422;2023-05-16T05:35:08;35.33;;;18.70;;
4786;SDS011;62338;48.832;9.422;2023-05-16T05:37:09;33.37;;;17.27;;
4786;SDS011;62338;48.832;9.422;2023-05-16T05:39:11;30.67;;;17.50;;
4786;SDS011;62338;48.832;9.422;2023-05-16T05:41:13;33.93;;;18.10;;
4786;SDS011;62338;48.832;9.422;2023-05-16T05:43:15;30.67;;;17.20;;
4786;SDS011;62338;48.832;9.422;2023-05-16T05:45:17;30.70;;;16.47;;
4786;SDS011;62338;48.832;9.422;2023-05-16T05:47:18;27.83;;;15.80;;
4786;SDS011;62338;48.832;9.422;2023-05-16T05:49:20;27.00;;;15.80;;
4786;SDS011;62338;48.832;9.422;2023-05-16T05:51:23;30.07;;;15.13;;
4786;SDS011;62338;48.832;9.422;2023-05-16T05:53:26;28.63;;;15.83;;
4786;SDS011;62338;48.832;9.422;2023-05-16T05:55:27;27.03;;;15.27;;
4786;SDS011;62338;48.832;9.422;2023-05-16T05:57:29;32.07;;;17.17;;
4786;SDS011;62338;48.832;9.422;2023-05-16T05:59:31;29.70;;;16.70;;
4786;SDS011;62338;48.832;9.422;2023-05-16T06:01:33;29.90;;;14.87;;
4786;SDS011;62338;48.832;9.422;2023-05-16T06:03:34;28.67;;;17.20;;
4786;SDS011;62338;48.832;9.422;2023-05-16T06:05:36;29.47;;;15.73;;
4786;SDS011;62338;48.832;9.422;2023-05-16T06:07:38;26.83;;;14.60;;
4786;SDS011;62338;48.832;9.422;2023-05-16T06:09:40;29.13;;;15.43;;
4786;SDS011;62338;48.832;9.422;2023-05-16T06:11:43;29.13;;;13.87;;
4786;SDS011;62338;48.832;9.422;2023-05-16T06:13:46;26.30;;;14.80;;
4786;SDS011;62338;48.832;9.422;2023-05-16T06:15:51;25.70;;;14.80;;
4786;SDS011;62338;48.832;9.422;2023-05-16T06:17:53;23.90;;;14.50;;
4786;SDS011;62338;48.832;9.422;2023-05-16T06:19:55;27.90;;;14.93;;
4786;SDS011;62338;48.832;9.422;2023-05-16T06:21:57;22.93;;;13.03;;
4786;SDS011;62338;48.832;9.422;2023-05-16T06:23:59;22.63;;;13.40;;
4786;SDS011;62338;48.832;9.422;2023-05-16T06:26:01;24.10;;;13.37;;
4786;SDS011;62338;48.832;9.422;2023-05-16T06:28:03;23.70;;;12.37;;
4786;SDS011;62338;48.832;9.422;2023-05-16T06:30:05;25.60;;;13.20;;
4786;SDS011;62338;48.832;9.422;2023-05-16T06:32:08;22.70;;;12.77;;
4786;SDS011;62338;48.832;9.422;2023-05-16T06:34:13;26.00;;;13.83;;
4786;SDS011;62338;48.832;9.422;2023-05-16T06:36:15;21.40;;;13.03;;
4786;SDS011;62338;48.832;9.422;2023-05-16T06:38:17;22.63;;;12.70;;
4786;SDS011;62338;48.832;9.422;2023-05-16T06:40:22;18.77;;;11.40;;
4786;SDS011;62338;48.832;9.422;2023-05-16T06:42:24;19.60;;;11.80;;
4786;SDS011;62338;48.832;9.422;2023-05-16T06:44:25;22.30;;;13.23;;
4786;SDS011;62338;48.832;9.422;2023-05-16T06:46:27;19.97;;;11.47;;
4786;SDS011;62338;48.832;9.422;2023-05-16T06:48:29;21.80;;;12.67;;
4786;SDS011;62338;48.832;9.422;2023-05-16T06:50:31;21.03;;;12.53;;
4786;SDS011;62338;48.832;9.422;2023-05-16T06:52:33;21.63;;;11.13;;
4786;SDS011;62338;48.832;9.422;2023-05-16T06:54:35;17.77;;;11.13;;
4786;SDS011;62338;48.832;9.422;2023-05-16T06:56:36;21.47;;;11.87;;
4786;SDS011;62338;48.832;9.422;2023-05-16T06:58:38;16.33;;;10.60;;
4786;SDS011;62338;48.832;9.422;2023-05-16T07:00:40;21.37;;;12.70;;
4786;SDS011;62338;48.832;9.422;2023-05-16T07:02:42;25.80;;;11.43;;
4786;SDS011;62338;48.832;9.422;2023-05-16T07:04:44;20.80;;;11.80;;
4786;SDS011;62338;48.832;9.422;2023-05-16T07:06:46;17.10;;;10.83;;
4786;SDS011;62338;48.832;9.422;2023-05-16T07:08:47;19.57;;;11.27;;
4786;SDS011;62338;48.832;9.422;2023-05-16T07:10:49;21.63;;;11.50;;
4786;SDS011;62338;48.832;9.422;2023-05-16T07:12:51;19.37;;;11.23;;
4786;SDS011;62338;48.832;9.422;2023-05-16T07:14:52;17.67;;;10.80;;
4786;SDS011;62338;48.832;9.422;2023-05-16T07:16:54;17.17;;;10.63;;
4786;SDS011;62338;48.832;9.422;2023-05-16T07:18:56;18.93;;;11.10;;
4786;SDS011;62338;48.832;9.422;2023-05-16T07:20:58;17.80;;;10.00;;
4786;SDS011;62338;48.832;9.422;2023-05-16T07:22:59;18.77;;;9.57;;
4786;SDS011;62338;48.832;9.422;2023-05-16T07:25:02;17.67;;;9.97;;
4786;SDS011;62338;48.832;9.422;2023-05-16T07:27:04;14.57;;;9.97;;
4786;SDS011;62338;48.832;9.422;2023-05-16T07:29:06;13.77;;;8.90;;
4786;SDS011;62338;48.832;9.422;2023-05-16T07:31:08;14.57;;;8.90;;
4786;SDS011;62338;48.832;9.422;2023-05-16T07:33:10;14.60;;;9.07;;
4786;SDS011;62338;48.832;9.422;2023-05-16T07:35:12;15.30;;;9.20;;
4786;SDS011;62338;48.832;9.422;2023-05-16T07:37:13;18.20;;;9.13;;
4786;SDS011;62338;48.832;9.422;2023-05-16T07:39:16;14.93;;;7.80;;
4786;SDS011;62338;48.832;9.422;2023-05-16T07:41:18;11.43;;;7.40;;
4786;SDS011;62338;48.832;9.422;2023-05-16T07:43:20;12.43;;;8.00;;
4786;SDS011;62338;48.832;9.422;2023-05-16T07:45:22;12.10;;;7.63;;
4786;SDS011;62338;48.832;9.422;2023-05-16T07:47:23;13.17;;;8.37;;
4786;SDS011;62338;48.832;9.422;2023-05-16T07:49:26;12.90;;;8.20;;
4786;SDS011;62338;48.832;9.422;2023-05-16T07:51:27;13.30;;;8.43;;
4786;SDS011;62338;48.832;9.422;2023-05-16T07:53:29;12.77;;;7.90;;
4786;SDS011;62338;48.832;9.422;2023-05-16T07:55:31;13.60;;;8.30;;
4786;SDS011;62338;48.832;9.422;2023-05-16T07:57:32;13.80;;;8.23;;
4786;SDS011;62338;48.832;9.422;2023-05-16T07:59:37;11.60;;;7.10;;
4786;SDS011;62338;48.832;9.422;2023-05-16T08:01:39;17.97;;;9.13;;
4786;SDS011;62338;48.832;9.422;2023-05-16T08:03:41;11.70;;;6.97;;
4786;SDS011;62338;48.832;9.422;2023-05-16T08:05:43;13.03;;;7.10;;
4786;SDS011;62338;48.832;9.422;2023-05-16T08:07:45;11.20;;;7.43;;
4786;SDS011;62338;48.832;9.422;2023-05-16T08:09:47;12.20;;;7.13;;
4786;SDS011;62338;48.832;9.422;2023-05-16T08:11:49;10.70;;;6.80;;
4786;SDS011;62338;48.832;9.422;2023-05-16T08:13:51;13.40;;;7.60;;
4786;SDS011;62338;48.832;9.422;2023-05-16T08:15:53;14.63;;;7.50;;
4786;SDS011;62338;48.832;9.422;2023-05-16T08:17:56;12.33;;;7.67;;
4786;SDS011;62338;48.832;9.422;2023-05-16T08:19:59;13.17;;;7.53;;
4786;SDS011;62338;48.832;9.422;2023-05-16T08:22:02;11.20;;;6.50;;
4786;SDS011;62338;48.832;9.422;2023-05-16T08:24:04;12.10;;;8.27;;
4786;SDS011;62338;48.832;9.422;2023-05-16T08:26:06;10.80;;;7.67;;
4786;SDS011;62338;48.832;9.422;2023-05-16T08:28:08;12.10;;;8.40;;
4786;SDS011;62338;48.832;9.422;2023-05-16T08:30:10;13.23;;;8.53;;
4786;SDS011;62338;48.832;9.422;2023-05-16T08:32:13;12.27;;;7.40;;
4786;SDS011;62338;48.832;9.422;2023-05-16T08:34:14;11.03;;;7.53;;
4786;SDS011;62338;48.832;9.422;2023-05-16T08:36:16;16.80;;;8.30;;
4786;SDS011;62338;48.832;9.422;2023-05-16T08:38:20;14.00;;;7.80;;
4786;SDS011;62338;48.832;9.422;2023-05-16T08:40:23;11.60;;;7.57;;
4786;SDS011;62338;48.832;9.422;2023-05-16T08:42:27;13.23;;;8.40;;
4786;SDS011;62338;48.832;9.422;2023-05-16T08:44:28;12.33;;;7.37;;
4786;SDS011;62338;48.832;9.422;2023-05-16T08:46:31;13.87;;;8.53;;
4786;SDS011;62338;48.832;9.422;2023-05-16T08:48:35;17.83;;;8.60;;
4786;SDS011;62338;48.832;9.422;2023-05-16T08:50:41;17.97;;;9.73;;
4786;SDS011;62338;48.832;9.422;2023-05-16T08:52:44;13.47;;;8.20;;
4786;SDS011;62338;48.832;9.422;2023-05-16T08:54:48;19.20;;;10.83;;
4786;SDS011;62338;48.832;9.422;2023-05-16T08:57:09;16.43;;;9.07;;
4786;SDS011;62338;48.832;9.422;2023-05-16T08:59:10;13.77;;;8.73;;
4786;SDS011;62338;48.832;9.422;2023-05-16T09:01:13;15.70;;;8.37;;
4786;SDS011;62338;48.832;9.422;2023-05-16T09:03:16;12.50;;;8.00;;
4786;SDS011;62338;48.832;9.422;2023-05-16T09:05:17;13.67;;;8.87;;
4786;SDS011;62338;48.832;9.422;2023-05-16T09:07:19;14.93;;;8.93;;
4786;SDS011;62338;48.832;9.422;2023-05-16T09:09:21;16.90;;;9.50;;
4786;SDS011;62338;48.832;9.422;2023-05-16T09:11:23;18.03;;;9.00;;
4786;SDS011;62338;48.832;9.422;2023-05-16T09:13:26;15.73;;;8.97;;
4786;SDS011;62338;48.832;9.422;2023-05-16T09:15:30;15.57;;;8.37;;
4786;SDS011;62338;48.832;9.422;2023-05-16T09:17:42;11.83;;;8.10;;
4786;SDS011;62338;48.832;9.422;2023-05-16T09:19:45;13.77;;;8.30;;
4786;SDS011;62338;48.832;9.422;2023-05-16T09:21:50;16.30;;;8.90;;
4786;SDS011;62338;48.832;9.422;2023-05-16T09:23:52;16.13;;;8.93;;
4786;SDS011;62338;48.832;9.422;2023-05-16T09:25:56;13.00;;;8.97;;
4786;SDS011;62338;48.832;9.422;2023-05-16T09:27:59;15.40;;;9.00;;
4786;SDS011;62338;48.832;9.422;2023-05-16T09:30:03;14.03;;;8.50;;
4786;SDS011;62338;48.832;9.422;2023-05-16T09:32:12;14.53;;;8.23;;
4786;SDS011;62338;48.832;9.422;2023-05-16T09:34:16;13.93;;;8.60;;
4786;SDS011;62338;48.832;9.422;2023-05-16T09:36:22;12.80;;;9.00;;
4786;SDS011;62338;48.832;9.422;2023-05-16T09:38:26;15.93;;;8.50;;
4786;SDS011;62338;48.832;9.422;2023-05-16T09:40:28;12.87;;;8.73;;
4786;SDS011;62338;48.832;9.422;2023-05-16T09:42:31;19.03;;;9.23;;
4786;SDS011;62338;48.832;9.422;2023-05-16T09:44:33;18.57;;;10.13;;
4786;SDS011;62338;48.832;9.422;2023-05-16T09:46:36;17.20;;;9.40;;
4786;SDS011;62338;48.832;9.422;2023-05-16T09:48:39;15.07;;;9.47;;
4786;SDS011;62338;48.832;9.422;2023-05-16T09:50:52;14.63;;;9.87;;
4786;SDS011;62338;48.832;9.422;2023-05-16T09:52:55;17.87;;;9.63;;
4786;SDS011;62338;48.832;9.422;2023-05-16T09:54:57;15.57;;;8.77;;
4786;SDS011;62338;48.832;9.422;2023-05-16T09:56:59;16.00;;;10.40;;
4786;SDS011;62338;48.832;9.422;2023-05-16T09:59:08;16.57;;;10.20;;
4786;SDS011;62338;48.832;9.422;2023-05-16T10:01:11;17.63;;;10.60;;
4786;SDS011;62338;48.832;9.422;2023-05-16T10:03:13;17.47;;;10.03;;
4786;SDS011;62338;48.832;9.422;2023-05-16T10:05:16;19.77;;;10.17;;
4786;SDS011;62338;48.832;9.422;2023-05-16T10:07:18;19.13;;;11.53;;
4786;SDS011;62338;48.832;9.422;2023-05-16T10:09:22;23.43;;;11.83;;
4786;SDS011;62338;48.832;9.422;2023-05-16T10:11:24;18.77;;;10.60;;
4786;SDS011;62338;48.832;9.422;2023-05-16T10:13:27;20.07;;;11.53;;
4786;SDS011;62338;48.832;9.422;2023-05-16T10:15:30;20.20;;;11.13;;
4786;SDS011;62338;48.832;9.422;2023-05-16T10:17:34;23.40;;;11.40;;
4786;SDS011;62338;48.832;9.422;2023-05-16T10:19:39;20.43;;;12.40;;
4786;SDS011;62338;48.832;9.422;2023-05-16T10:21:44;19.40;;;11.77;;
4786;SDS011;62338;48.832;9.422;2023-05-16T10:23:52;21.80;;;11.20;;
4786;SDS011;62338;48.832;9.422;2023-05-16T10:25:57;17.23;;;10.80;;
4786;SDS011;62338;48.832;9.422;2023-05-16T10:28:01;20.10;;;10.07;;
4786;SDS011;62338;48.832;9.422;2023-05-16T10:30:04;21.80;;;11.90;;
4786;SDS011;62338;48.832;9.422;2023-05-16T10:32:08;17.60;;;10.03;;
4786;SDS011;62338;48.832;9.422;2023-05-16T10:34:10;20.70;;;10.40;;
4786;SDS011;62338;48.832;9.422;2023-05-16T10:36:13;18.50;;;11.23;;
4786;SDS011;62338;48.832;9.422;2023-05-16T10:38:17;18.50;;;11.50;;
4786;SDS011;62338;48.832;9.422;2023-05-16T10:40:20;21.40;;;12.30;;
4786;SDS011;62338;48.832;9.422;2023-05-16T10:42:22;20.47;;;11.07;;
4786;SDS011;62338;48.832;9.422;2023-05-16T10:44:24;23.57;;;11.90;;
4786;SDS011;62338;48.832;9.422;2023-05-16T10:46:26;19.67;;;12.80;;
4786;SDS011;62338;48.832;9.422;2023-05-16T10:48:33;20.13;;;12.30;;
4786;SDS011;62338;48.832;9.422;2023-05-16T10:50:43;20.50;;;12.30;;
4786;SDS011;62338;48.832;9.422;2023-05-16T10:52:46;21.60;;;11.00;;
4786;SDS011;62338;48.832;9.422;2023-05-16T10:54:53;18.37;;;9.80;;
4786;SDS011;62338;48.832;9.422;2023-05-16T10:56:56;22.00;;;11.87;;
4786;SDS011;62338;48.832;9.422;2023-05-16T10:58:57;24.50;;;12.17;;
4786;SDS011;62338;48.832;9.422;2023-05-16T11:03:24;18.57;;;10.00;;
4786;SDS011;62338;48.832;9.422;2023-05-16T11:05:29;18.13;;;10.80;;
4786;SDS011;62338;48.832;9.422;2023-05-16T11:07:31;18.80;;;10.80;;
4786;SDS011;62338;48.832;9.422;2023-05-16T11:09:36;16.43;;;10.20;;
4786;SDS011;62338;48.832;9.422;2023-05-16T11:13:53;22.27;;;10.23;;
4786;SDS011;62338;48.832;9.422;2023-05-16T11:16:25;21.27;;;9.30;;
4786;SDS011;62338;48.832;9.422;2023-05-16T11:18:31;19.43;;;10.87;;
4786;SDS011;62338;48.832;9.422;2023-05-16T11:20:37;15.90;;;9.43;;
4786;SDS011;62338;48.832;9.422;2023-05-16T11:22:40;19.87;;;10.40;;
4786;SDS011;62338;48.832;9.422;2023-05-16T11:24:55;17.63;;;9.80;;
4786;SDS011;62338;48.832;9.422;2023-05-16T11:27:02;17.67;;;10.10;;
4786;SDS011;62338;48.832;9.422;2023-05-16T11:29:04;19.30;;;11.00;;
4786;SDS011;62338;48.832;9.422;2023-05-16T11:31:06;19.50;;;11.57;;
4786;SDS011;62338;48.832;9.422;2023-05-16T11:33:09;19.20;;;10.23;;
4786;SDS011;62338;48.832;9.422;2023-05-16T11:35:14;17.73;;;10.70;;
4786;SDS011;62338;48.832;9.422;2023-05-16T11:37:18;19.63;;;10.87;;
4786;SDS011;62338;48.832;9.422;2023-05-16T11:39:20;19.00;;;10.53;;
4786;SDS011;62338;48.832;9.422;2023-05-16T11:41:25;16.37;;;9.80;;
4786;SDS011;62338;48.832;9.422;2023-05-16T11:43:27;17.73;;;10.27;;
4786;SDS011;62338;48.832;9.422;2023-05-16T11:45:29;18.03;;;10.17;;
4786;SDS011;62338;48.832;9.422;2023-05-16T11:47:31;18.73;;;10.60;;
4786;SDS011;62338;48.832;9.422;2023-05-16T11:49:33;16.73;;;10.27;;
4786;SDS011;62338;48.832;9.422;2023-05-16T11:51:39;17.27;;;10.57;;
4786;SDS011;62338;48.832;9.422;2023-05-16T11:53:42;16.17;;;9.77;;
4786;SDS011;62338;48.832;9.422;2023-05-16T11:55:44;17.00;;;9.97;;
4786;SDS011;62338;48.832;9.422;2023-05-16T11:57:56;18.23;;;9.67;;
4786;SDS011;62338;48.832;9.422;2023-05-16T12:00:05;15.43;;;9.70;;
4786;SDS011;62338;48.832;9.422;2023-05-16T12:02:18;18.20;;;10.60;;
4786;SDS011;62338;48.832;9.422;2023-05-16T12:04:20;19.73;;;9.43;;
4786;SDS011;62338;48.832;9.422;2023-05-16T12:06:23;13.37;;;8.10;;
4786;SDS011;62338;48.832;9.422;2023-05-16T12:08:26;17.40;;;9.67;;
4786;SDS011;62338;48.832;9.422;2023-05-16T12:10:29;18.90;;;10.77;;
4786;SDS011;62338;48.832;9.422;2023-05-16T12:12:35;14.50;;;9.27;;
4786;SDS011;62338;48.832;9.422;2023-05-16T12:14:38;17.27;;;9.90;;
4786;SDS011;62338;48.832;9.422;2023-05-16T12:16:40;17.27;;;9.17;;
4786;SDS011;62338;48.832;9.422;2023-05-16T12:18:44;15.67;;;9.53;;
4786;SDS011;62338;48.832;9.422;2023-05-16T12:20:46;16.93;;;9.43;;
4786;SDS011;62338;48.832;9.422;2023-05-16T12:22:48;16.67;;;8.20;;
4786;SDS011;62338;48.832;9.422;2023-05-16T12:24:50;13.33;;;8.07;;
4786;SDS011;62338;48.832;9.422;2023-05-16T12:26:52;14.93;;;7.90;;
4786;SDS011;62338;48.832;9.422;2023-05-16T12:28:54;12.27;;;6.80;;
4786;SDS011;62338;48.832;9.422;2023-05-16T12:31:02;14.10;;;7.27;;